sensor_id;sensor_type;location;lat;lon;timestamp;pressure;altitude;pressure_sealevel;temperature;humidity
11415;BME280;5763;42.714;23.244;2022-07-22T00:00:00;94640.63;;;24.70;44.65
11415;BME280;5763;42.714;23.244;2022-07-22T00:02:29;94639.47;;;24.66;44.69
11415;BME280;5763;42.714;23.244;2022-07-22T00:04:55;94648.16;;;24.62;45.10
11415;BME280;5763;42.714;23.244;2022-07-22T00:07:22;94646.66;;;24.61;44.29
11415;BME280;5763;42.714;23.244;2022-07-22T00:09:49;94642.44;;;24.55;44.19
11415;BME280;5763;42.714;23.244;2022-07-22T00:12:15;94645.16;;;24.60;44.92
11415;BME280;5763;42.714;23.244;2022-07-22T00:14:42;94647.78;;;24.58;45.46
11415;BME280;5763;42.714;23.244;2022-07-22T00:17:09;94645.03;;;24.53;45.88
11415;BME280;5763;42.714;23.244;2022-07-22T00:19:37;94651.72;;;24.50;46.06
11415;BME280;5763;42.714;23.244;2022-07-22T00:22:04;94641.00;;;24.41;46.33
11415;BME280;5763;42.714;23.244;2022-07-22T00:24:31;94644.88;;;24.38;46.48
11415;BME280;5763;42.714;23.244;2022-07-22T00:26:58;94650.78;;;24.34;46.57
11415;BME280;5763;42.714;23.244;2022-07-22T00:29:24;94649.63;;;24.30;46.79
11415;BME280;5763;42.714;23.244;2022-07-22T00:31:51;94644.91;;;24.25;46.96
11415;BME280;5763;42.714;23.244;2022-07-22T00:34:18;94647.13;;;24.26;46.98
11415;BME280;5763;42.714;23.244;2022-07-22T00:36:46;94645.53;;;24.18;47.19
11415;BME280;5763;42.714;23.244;2022-07-22T00:39:13;94647.91;;;24.14;47.21
11415;BME280;5763;42.714;23.244;2022-07-22T00:41:40;94651.78;;;24.11;47.59
11415;BME280;5763;42.714;23.244;2022-07-22T00:44:08;94646.72;;;24.09;47.61
11415;BME280;5763;42.714;23.244;2022-07-22T00:46:37;94660.06;;;24.03;47.89
11415;BME280;5763;42.714;23.244;2022-07-22T00:49:05;94657.81;;;24.02;47.87
11415;BME280;5763;42.714;23.244;2022-07-22T00:51:32;94655.69;;;23.95;47.74
11415;BME280;5763;42.714;23.244;2022-07-22T00:54:02;94658.25;;;23.93;47.73
11415;BME280;5763;42.714;23.244;2022-07-22T00:56:29;94656.84;;;23.86;48.12
11415;BME280;5763;42.714;23.244;2022-07-22T00:58:58;94660.47;;;23.81;48.15
11415;BME280;5763;42.714;23.244;2022-07-22T01:01:25;94652.97;;;23.76;48.16
11415;BME280;5763;42.714;23.244;2022-07-22T01:03:52;94658.97;;;23.80;48.28
11415;BME280;5763;42.714;23.244;2022-07-22T01:06:19;94659.28;;;23.77;48.55
11415;BME280;5763;42.714;23.244;2022-07-22T01:08:46;94658.84;;;23.73;48.95
11415;BME280;5763;42.714;23.244;2022-07-22T01:11:16;94659.81;;;23.62;49.29
11415;BME280;5763;42.714;23.244;2022-07-22T01:13:45;94660.34;;;23.61;49.53
11415;BME280;5763;42.714;23.244;2022-07-22T01:16:14;94655.28;;;23.59;49.88
11415;BME280;5763;42.714;23.244;2022-07-22T01:18:42;94653.03;;;23.58;50.00
11415;BME280;5763;42.714;23.244;2022-07-22T01:21:10;94653.66;;;23.51;50.17
11415;BME280;5763;42.714;23.244;2022-07-22T01:23:38;94649.69;;;23.46;50.09
11415;BME280;5763;42.714;23.244;2022-07-22T01:26:05;94655.28;;;23.46;50.36
11415;BME280;5763;42.714;23.244;2022-07-22T01:28:32;94652.13;;;23.37;50.80
11415;BME280;5763;42.714;23.244;2022-07-22T01:30:59;94650.75;;;23.30;51.25
11415;BME280;5763;42.714;23.244;2022-07-22T01:33:26;94659.84;;;23.31;51.29
11415;BME280;5763;42.714;23.244;2022-07-22T01:35:53;94658.53;;;23.19;51.65
11415;BME280;5763;42.714;23.244;2022-07-22T01:38:21;94661.84;;;23.17;51.68
11415;BME280;5763;42.714;23.244;2022-07-22T01:40:48;94658.59;;;23.13;51.79
11415;BME280;5763;42.714;23.244;2022-07-22T01:43:15;94656.63;;;23.08;52.27
11415;BME280;5763;42.714;23.244;2022-07-22T01:45:43;94652.69;;;23.17;52.04
11415;BME280;5763;42.714;23.244;2022-07-22T01:48:10;94653.31;;;23.10;52.27
11415;BME280;5763;42.714;23.244;2022-07-22T01:50:38;94655.97;;;23.02;52.56
11415;BME280;5763;42.714;23.244;2022-07-22T01:53:05;94652.75;;;22.98;52.75
11415;BME280;5763;42.714;23.244;2022-07-22T01:55:33;94664.16;;;23.00;52.90
11415;BME280;5763;42.714;23.244;2022-07-22T01:58:00;94657.59;;;22.98;52.91
11415;BME280;5763;42.714;23.244;2022-07-22T02:00:28;94657.66;;;22.92;53.18
11415;BME280;5763;42.714;23.244;2022-07-22T02:02:54;94664.00;;;22.93;53.41
11415;BME280;5763;42.714;23.244;2022-07-22T02:05:21;94662.88;;;22.83;53.48
11415;BME280;5763;42.714;23.244;2022-07-22T02:07:48;94671.03;;;22.81;53.46
11415;BME280;5763;42.714;23.244;2022-07-22T02:10:15;94681.91;;;22.84;53.55
11415;BME280;5763;42.714;23.244;2022-07-22T02:12:43;94679.41;;;22.81;53.73
11415;BME280;5763;42.714;23.244;2022-07-22T02:15:10;94683.31;;;22.72;54.21
11415;BME280;5763;42.714;23.244;2022-07-22T02:17:37;94680.00;;;22.74;54.17
11415;BME280;5763;42.714;23.244;2022-07-22T02:20:05;94683.41;;;22.67;54.38
11415;BME280;5763;42.714;23.244;2022-07-22T02:22:31;94682.13;;;22.68;54.37
11415;BME280;5763;42.714;23.244;2022-07-22T02:24:58;94677.16;;;22.61;54.61
11415;BME280;5763;42.714;23.244;2022-07-22T02:27:25;94683.34;;;22.54;54.93
11415;BME280;5763;42.714;23.244;2022-07-22T02:29:53;94690.06;;;22.45;54.94
11415;BME280;5763;42.714;23.244;2022-07-22T02:32:20;94685.47;;;22.42;54.25
11415;BME280;5763;42.714;23.244;2022-07-22T02:34:47;94682.16;;;22.44;53.07
11415;BME280;5763;42.714;23.244;2022-07-22T02:37:13;94681.84;;;22.29;53.10
11415;BME280;5763;42.714;23.244;2022-07-22T02:39:40;94680.34;;;22.28;52.94
11415;BME280;5763;42.714;23.244;2022-07-22T02:42:07;94670.78;;;22.23;52.84
11415;BME280;5763;42.714;23.244;2022-07-22T02:44:34;94671.91;;;22.15;52.85
11415;BME280;5763;42.714;23.244;2022-07-22T02:47:02;94675.59;;;22.04;53.06
11415;BME280;5763;42.714;23.244;2022-07-22T02:49:29;94673.56;;;22.05;53.07
11415;BME280;5763;42.714;23.244;2022-07-22T02:51:55;94680.00;;;21.94;53.40
11415;BME280;5763;42.714;23.244;2022-07-22T02:54:22;94673.66;;;21.94;53.29
11415;BME280;5763;42.714;23.244;2022-07-22T02:56:49;94670.53;;;21.79;53.83
11415;BME280;5763;42.714;23.244;2022-07-22T02:59:16;94674.97;;;21.69;54.15
11415;BME280;5763;42.714;23.244;2022-07-22T03:01:43;94678.88;;;21.55;54.74
11415;BME280;5763;42.714;23.244;2022-07-22T03:04:11;94673.63;;;21.46;55.06
11415;BME280;5763;42.714;23.244;2022-07-22T03:06:38;94676.66;;;21.48;55.00
11415;BME280;5763;42.714;23.244;2022-07-22T03:09:04;94678.75;;;21.42;55.13
11415;BME280;5763;42.714;23.244;2022-07-22T03:11:31;94673.88;;;21.48;54.80
11415;BME280;5763;42.714;23.244;2022-07-22T03:13:58;94675.63;;;21.51;54.97
11415;BME280;5763;42.714;23.244;2022-07-22T03:16:24;94678.81;;;21.60;54.18
11415;BME280;5763;42.714;23.244;2022-07-22T03:18:51;94680.84;;;21.60;54.21
11415;BME280;5763;42.714;23.244;2022-07-22T03:21:19;94682.56;;;21.63;54.29
11415;BME280;5763;42.714;23.244;2022-07-22T03:23:46;94683.56;;;21.71;54.16
11415;BME280;5763;42.714;23.244;2022-07-22T03:26:18;94673.63;;;21.75;54.34
11415;BME280;5763;42.714;23.244;2022-07-22T03:28:45;94677.84;;;21.82;54.60
11415;BME280;5763;42.714;23.244;2022-07-22T03:31:12;94673.22;;;21.90;54.55
11415;BME280;5763;42.714;23.244;2022-07-22T03:33:39;94674.72;;;21.91;54.56
11415;BME280;5763;42.714;23.244;2022-07-22T03:36:06;94681.81;;;21.92;54.64
11415;BME280;5763;42.714;23.244;2022-07-22T03:38:35;94680.00;;;21.94;54.93
11415;BME280;5763;42.714;23.244;2022-07-22T03:41:02;94683.00;;;21.96;54.81
11415;BME280;5763;42.714;23.244;2022-07-22T03:43:29;94689.13;;;21.95;55.02
11415;BME280;5763;42.714;23.244;2022-07-22T03:45:56;94683.19;;;22.04;54.80
11415;BME280;5763;42.714;23.244;2022-07-22T03:48:23;94691.53;;;22.04;55.01
11415;BME280;5763;42.714;23.244;2022-07-22T03:50:50;94693.81;;;22.05;55.31
11415;BME280;5763;42.714;23.244;2022-07-22T03:53:17;94690.19;;;22.10;55.07
11415;BME280;5763;42.714;23.244;2022-07-22T03:55:45;94697.13;;;22.04;55.62
11415;BME280;5763;42.714;23.244;2022-07-22T03:58:11;94697.81;;;22.10;55.38
11415;BME280;5763;42.714;23.244;2022-07-22T04:00:38;94695.31;;;22.06;54.99
11415;BME280;5763;42.714;23.244;2022-07-22T04:03:05;94694.28;;;22.09;55.00
11415;BME280;5763;42.714;23.244;2022-07-22T04:05:32;94701.81;;;22.14;55.33
11415;BME280;5763;42.714;23.244;2022-07-22T04:07:58;94701.06;;;22.14;55.26
11415;BME280;5763;42.714;23.244;2022-07-22T04:10:25;94705.81;;;22.19;54.47
11415;BME280;5763;42.714;23.244;2022-07-22T04:12:53;94703.03;;;22.19;54.13
11415;BME280;5763;42.714;23.244;2022-07-22T04:15:20;94704.31;;;22.18;54.57
11415;BME280;5763;42.714;23.244;2022-07-22T04:17:47;94705.81;;;22.19;54.35
11415;BME280;5763;42.714;23.244;2022-07-22T04:20:14;94702.97;;;22.24;54.14
11415;BME280;5763;42.714;23.244;2022-07-22T04:22:40;94711.38;;;22.19;54.08
11415;BME280;5763;42.714;23.244;2022-07-22T04:25:08;94706.75;;;22.27;54.02
11415;BME280;5763;42.714;23.244;2022-07-22T04:27:35;94709.75;;;22.29;54.09
11415;BME280;5763;42.714;23.244;2022-07-22T04:30:04;94719.84;;;22.32;53.88
11415;BME280;5763;42.714;23.244;2022-07-22T04:32:31;94716.81;;;22.30;54.00
11415;BME280;5763;42.714;23.244;2022-07-22T04:34:58;94719.41;;;22.28;54.31
11415;BME280;5763;42.714;23.244;2022-07-22T04:37:24;94725.16;;;22.11;54.52
11415;BME280;5763;42.714;23.244;2022-07-22T04:39:51;94720.56;;;22.14;54.51
11415;BME280;5763;42.714;23.244;2022-07-22T04:42:18;94718.06;;;22.10;54.34
11415;BME280;5763;42.714;23.244;2022-07-22T04:44:45;94721.13;;;22.12;54.21
11415;BME280;5763;42.714;23.244;2022-07-22T04:47:13;94727.03;;;22.03;54.08
11415;BME280;5763;42.714;23.244;2022-07-22T04:49:40;94731.03;;;22.08;53.86
11415;BME280;5763;42.714;23.244;2022-07-22T04:52:07;94731.88;;;22.21;53.58
11415;BME280;5763;42.714;23.244;2022-07-22T04:54:35;94736.19;;;22.22;53.70
11415;BME280;5763;42.714;23.244;2022-07-22T04:57:01;94734.16;;;22.23;53.33
11415;BME280;5763;42.714;23.244;2022-07-22T04:59:28;94735.13;;;22.25;53.63
11415;BME280;5763;42.714;23.244;2022-07-22T05:01:55;94736.44;;;22.24;53.92
11415;BME280;5763;42.714;23.244;2022-07-22T05:04:23;94732.66;;;22.22;54.29
11415;BME280;5763;42.714;23.244;2022-07-22T05:06:50;94735.97;;;22.20;54.32
11415;BME280;5763;42.714;23.244;2022-07-22T05:09:17;94738.97;;;22.22;54.48
11415;BME280;5763;42.714;23.244;2022-07-22T05:11:44;94717.22;;;22.21;54.11
11415;BME280;5763;42.714;23.244;2022-07-22T05:14:10;94746.59;;;22.46;53.84
11415;BME280;5763;42.714;23.244;2022-07-22T05:16:37;94741.41;;;22.55;53.58
11415;BME280;5763;42.714;23.244;2022-07-22T05:19:05;94733.50;;;22.59;53.06
11415;BME280;5763;42.714;23.244;2022-07-22T05:21:33;94740.47;;;22.66;52.55
11415;BME280;5763;42.714;23.244;2022-07-22T05:24:00;94745.25;;;22.71;52.93
11415;BME280;5763;42.714;23.244;2022-07-22T05:26:27;94741.88;;;22.78;52.22
11415;BME280;5763;42.714;23.244;2022-07-22T05:28:55;94756.72;;;22.86;52.05
11415;BME280;5763;42.714;23.244;2022-07-22T05:31:22;94748.28;;;22.91;52.17
11415;BME280;5763;42.714;23.244;2022-07-22T05:33:49;94755.88;;;22.91;52.38
11415;BME280;5763;42.714;23.244;2022-07-22T05:36:15;94748.22;;;22.97;52.37
11415;BME280;5763;42.714;23.244;2022-07-22T05:38:44;94751.16;;;23.04;51.93
11415;BME280;5763;42.714;23.244;2022-07-22T05:41:10;94747.63;;;23.17;50.83
11415;BME280;5763;42.714;23.244;2022-07-22T05:43:37;94753.38;;;23.24;49.83
11415;BME280;5763;42.714;23.244;2022-07-22T05:46:04;94743.50;;;23.23;50.12
11415;BME280;5763;42.714;23.244;2022-07-22T05:48:32;94745.69;;;23.30;49.64
11415;BME280;5763;42.714;23.244;2022-07-22T05:50:59;94745.38;;;23.34;49.42
11415;BME280;5763;42.714;23.244;2022-07-22T05:53:26;94741.44;;;23.42;49.25
11415;BME280;5763;42.714;23.244;2022-07-22T05:55:54;94740.28;;;23.51;49.22
11415;BME280;5763;42.714;23.244;2022-07-22T05:58:21;94745.03;;;23.56;49.38
11415;BME280;5763;42.714;23.244;2022-07-22T06:00:48;94740.84;;;23.62;49.56
11415;BME280;5763;42.714;23.244;2022-07-22T06:03:15;94744.31;;;23.68;49.60
11415;BME280;5763;42.714;23.244;2022-07-22T06:05:41;94749.81;;;23.74;49.42
11415;BME280;5763;42.714;23.244;2022-07-22T06:08:08;94738.75;;;23.81;49.30
11415;BME280;5763;42.714;23.244;2022-07-22T06:10:35;94737.22;;;23.80;49.39
11415;BME280;5763;42.714;23.244;2022-07-22T06:13:03;94740.09;;;23.93;49.41
11415;BME280;5763;42.714;23.244;2022-07-22T06:15:30;94735.34;;;24.01;49.42
11415;BME280;5763;42.714;23.244;2022-07-22T06:17:56;94738.06;;;24.07;49.16
11415;BME280;5763;42.714;23.244;2022-07-22T06:20:23;94741.50;;;24.13;49.21
11415;BME280;5763;42.714;23.244;2022-07-22T06:22:50;94754.19;;;24.14;49.41
11415;BME280;5763;42.714;23.244;2022-07-22T06:25:17;94746.13;;;24.23;49.79
11415;BME280;5763;42.714;23.244;2022-07-22T06:27:44;94746.88;;;24.37;49.45
11415;BME280;5763;42.714;23.244;2022-07-22T06:30:12;94744.28;;;24.39;49.60
11415;BME280;5763;42.714;23.244;2022-07-22T06:32:39;94746.75;;;24.42;49.40
11415;BME280;5763;42.714;23.244;2022-07-22T06:35:07;94755.50;;;24.52;49.89
11415;BME280;5763;42.714;23.244;2022-07-22T06:37:34;94753.31;;;24.58;49.63
11415;BME280;5763;42.714;23.244;2022-07-22T06:40:00;94752.91;;;24.67;49.77
11415;BME280;5763;42.714;23.244;2022-07-22T06:42:27;94747.19;;;24.72;49.71
11415;BME280;5763;42.714;23.244;2022-07-22T06:44:54;94751.16;;;24.90;49.22
11415;BME280;5763;42.714;23.244;2022-07-22T06:47:23;94755.66;;;24.93;48.88
11415;BME280;5763;42.714;23.244;2022-07-22T06:49:51;94758.03;;;25.02;48.32
11415;BME280;5763;42.714;23.244;2022-07-22T06:52:19;94754.34;;;25.07;47.96
11415;BME280;5763;42.714;23.244;2022-07-22T06:54:48;94745.13;;;25.19;47.83
11415;BME280;5763;42.714;23.244;2022-07-22T06:57:16;94743.28;;;25.22;47.72
11415;BME280;5763;42.714;23.244;2022-07-22T06:59:44;94750.19;;;25.34;47.79
11415;BME280;5763;42.714;23.244;2022-07-22T07:02:12;94743.91;;;25.41;47.96
11415;BME280;5763;42.714;23.244;2022-07-22T07:04:42;94741.31;;;25.43;47.20
11415;BME280;5763;42.714;23.244;2022-07-22T07:07:11;94747.72;;;25.51;46.81
11415;BME280;5763;42.714;23.244;2022-07-22T07:09:39;94758.13;;;25.63;46.81
11415;BME280;5763;42.714;23.244;2022-07-22T07:12:07;94751.91;;;25.78;47.00
11415;BME280;5763;42.714;23.244;2022-07-22T07:14:35;94755.13;;;25.82;45.94
11415;BME280;5763;42.714;23.244;2022-07-22T07:17:03;94755.44;;;25.91;46.08
11415;BME280;5763;42.714;23.244;2022-07-22T07:19:31;94757.59;;;26.06;46.08
11415;BME280;5763;42.714;23.244;2022-07-22T07:22:01;94751.28;;;26.13;45.86
11415;BME280;5763;42.714;23.244;2022-07-22T07:24:30;94720.53;;;26.00;45.46
11415;BME280;5763;42.714;23.244;2022-07-22T07:26:59;94755.91;;;26.31;44.94
11415;BME280;5763;42.714;23.244;2022-07-22T07:29:27;94756.09;;;26.33;44.07
11415;BME280;5763;42.714;23.244;2022-07-22T07:31:56;94758.06;;;26.45;44.40
11415;BME280;5763;42.714;23.244;2022-07-22T07:34:24;94756.06;;;26.53;43.64
11415;BME280;5763;42.714;23.244;2022-07-22T07:36:52;94761.38;;;26.64;43.40
11415;BME280;5763;42.714;23.244;2022-07-22T07:39:22;94755.22;;;26.66;42.59
11415;BME280;5763;42.714;23.244;2022-07-22T07:41:52;94751.69;;;26.73;42.02
11415;BME280;5763;42.714;23.244;2022-07-22T07:44:20;94757.94;;;26.86;42.23
11415;BME280;5763;42.714;23.244;2022-07-22T07:46:48;94761.56;;;27.02;42.86
11415;BME280;5763;42.714;23.244;2022-07-22T07:49:15;94748.13;;;27.15;42.06
11415;BME280;5763;42.714;23.244;2022-07-22T07:51:43;94763.34;;;27.20;42.12
11415;BME280;5763;42.714;23.244;2022-07-22T07:54:13;94760.16;;;27.23;41.58
11415;BME280;5763;42.714;23.244;2022-07-22T07:56:44;94763.56;;;27.37;41.72
11415;BME280;5763;42.714;23.244;2022-07-22T07:59:12;94757.97;;;27.44;40.50
11415;BME280;5763;42.714;23.244;2022-07-22T08:01:40;94758.38;;;27.56;40.42
11415;BME280;5763;42.714;23.244;2022-07-22T08:04:08;94752.75;;;27.63;38.98
11415;BME280;5763;42.714;23.244;2022-07-22T08:06:37;94758.59;;;27.73;38.96
11415;BME280;5763;42.714;23.244;2022-07-22T08:09:06;94762.75;;;27.87;36.04
11415;BME280;5763;42.714;23.244;2022-07-22T08:11:33;94773.63;;;27.90;37.22
11415;BME280;5763;42.714;23.244;2022-07-22T08:14:02;94761.09;;;27.99;36.07
11415;BME280;5763;42.714;23.244;2022-07-22T08:16:30;94763.31;;;28.15;35.56
11415;BME280;5763;42.714;23.244;2022-07-22T08:18:58;94771.38;;;28.19;36.87
11415;BME280;5763;42.714;23.244;2022-07-22T08:21:26;94755.41;;;28.29;37.31
11415;BME280;5763;42.714;23.244;2022-07-22T08:23:54;94752.97;;;28.33;37.27
11415;BME280;5763;42.714;23.244;2022-07-22T08:26:22;94749.44;;;28.32;37.41
11415;BME280;5763;42.714;23.244;2022-07-22T08:28:50;94752.44;;;28.42;37.14
11415;BME280;5763;42.714;23.244;2022-07-22T08:31:20;94756.56;;;28.48;37.59
11415;BME280;5763;42.714;23.244;2022-07-22T08:33:48;94762.38;;;28.58;37.26
11415;BME280;5763;42.714;23.244;2022-07-22T08:36:17;94761.03;;;28.66;36.62
11415;BME280;5763;42.714;23.244;2022-07-22T08:38:45;94761.38;;;28.78;34.95
11415;BME280;5763;42.714;23.244;2022-07-22T08:41:15;94756.28;;;28.84;34.69
11415;BME280;5763;42.714;23.244;2022-07-22T08:43:43;94755.34;;;28.89;34.65
11415;BME280;5763;42.714;23.244;2022-07-22T08:46:13;94757.94;;;28.94;34.30
11415;BME280;5763;42.714;23.244;2022-07-22T08:48:43;94759.44;;;29.03;35.48
11415;BME280;5763;42.714;23.244;2022-07-22T08:51:11;94758.66;;;29.10;35.37
11415;BME280;5763;42.714;23.244;2022-07-22T08:53:39;94758.03;;;29.26;35.72
11415;BME280;5763;42.714;23.244;2022-07-22T08:56:08;94763.81;;;29.36;35.91
11415;BME280;5763;42.714;23.244;2022-07-22T08:58:40;94763.38;;;29.47;36.07
11415;BME280;5763;42.714;23.244;2022-07-22T09:01:09;94754.69;;;29.60;34.39
11415;BME280;5763;42.714;23.244;2022-07-22T09:03:46;94757.63;;;29.69;34.27
11415;BME280;5763;42.714;23.244;2022-07-22T09:06:15;94759.81;;;29.78;33.59
11415;BME280;5763;42.714;23.244;2022-07-22T09:08:57;94761.66;;;29.83;33.47
11415;BME280;5763;42.714;23.244;2022-07-22T09:11:26;94766.63;;;30.00;33.92
11415;BME280;5763;42.714;23.244;2022-07-22T09:13:56;94769.38;;;30.15;33.19
11415;BME280;5763;42.714;23.244;2022-07-22T09:16:39;94775.53;;;30.21;33.00
11415;BME280;5763;42.714;23.244;2022-07-22T09:19:09;94771.88;;;30.28;32.53
11415;BME280;5763;42.714;23.244;2022-07-22T09:21:38;94767.44;;;30.42;32.21
11415;BME280;5763;42.714;23.244;2022-07-22T09:24:07;94769.63;;;30.51;33.11
11415;BME280;5763;42.714;23.244;2022-07-22T09:26:36;94764.31;;;30.55;32.99
11415;BME280;5763;42.714;23.244;2022-07-22T09:29:05;94765.16;;;30.65;32.76
11415;BME280;5763;42.714;23.244;2022-07-22T09:31:36;94761.44;;;30.79;32.36
11415;BME280;5763;42.714;23.244;2022-07-22T09:34:04;94761.38;;;30.87;31.21
11415;BME280;5763;42.714;23.244;2022-07-22T09:36:54;94762.84;;;31.05;31.56
11415;BME280;5763;42.714;23.244;2022-07-22T09:39:25;94760.41;;;31.18;30.75
11415;BME280;5763;42.714;23.244;2022-07-22T09:41:57;94756.63;;;31.23;30.31
11415;BME280;5763;42.714;23.244;2022-07-22T09:44:25;94752.53;;;31.34;30.23
11415;BME280;5763;42.714;23.244;2022-07-22T09:46:53;94761.59;;;31.49;30.94
11415;BME280;5763;42.714;23.244;2022-07-22T09:49:31;94762.44;;;31.69;31.26
11415;BME280;5763;42.714;23.244;2022-07-22T09:52:03;94754.00;;;31.78;31.20
11415;BME280;5763;42.714;23.244;2022-07-22T09:54:31;94742.78;;;31.97;30.30
11415;BME280;5763;42.714;23.244;2022-07-22T09:56:59;94743.13;;;32.11;30.64
11415;BME280;5763;42.714;23.244;2022-07-22T09:59:27;94754.19;;;32.16;30.66
11415;BME280;5763;42.714;23.244;2022-07-22T10:01:58;94739.19;;;32.33;29.69
11415;BME280;5763;42.714;23.244;2022-07-22T10:04:30;94748.91;;;32.49;29.71
11415;BME280;5763;42.714;23.244;2022-07-22T10:07:02;94741.03;;;32.57;29.43
11415;BME280;5763;42.714;23.244;2022-07-22T10:09:30;94744.34;;;32.63;29.54
11415;BME280;5763;42.714;23.244;2022-07-22T10:11:58;94742.56;;;32.77;28.79
11415;BME280;5763;42.714;23.244;2022-07-22T10:14:28;94740.66;;;32.89;29.26
11415;BME280;5763;42.714;23.244;2022-07-22T10:16:56;94736.94;;;33.05;27.85
11415;BME280;5763;42.714;23.244;2022-07-22T10:19:24;94725.13;;;33.28;28.57
11415;BME280;5763;42.714;23.244;2022-07-22T10:21:52;94737.06;;;33.36;28.94
11415;BME280;5763;42.714;23.244;2022-07-22T10:24:22;94727.66;;;33.43;27.39
11415;BME280;5763;42.714;23.244;2022-07-22T10:26:52;94736.75;;;33.51;27.07
11415;BME280;5763;42.714;23.244;2022-07-22T10:29:25;94727.78;;;33.64;27.70
11415;BME280;5763;42.714;23.244;2022-07-22T10:32:21;94732.69;;;33.73;26.61
11415;BME280;5763;42.714;23.244;2022-07-22T10:35:23;94720.69;;;33.74;25.48
11415;BME280;5763;42.714;23.244;2022-07-22T10:37:55;94725.94;;;33.87;26.04
11415;BME280;5763;42.714;23.244;2022-07-22T10:40:26;94723.03;;;33.97;26.26
11415;BME280;5763;42.714;23.244;2022-07-22T10:43:10;94724.81;;;34.02;25.11
11415;BME280;5763;42.714;23.244;2022-07-22T10:45:41;94720.00;;;34.14;25.71
11415;BME280;5763;42.714;23.244;2022-07-22T10:48:11;94716.19;;;34.30;26.37
11415;BME280;5763;42.714;23.244;2022-07-22T10:53:40;94724.00;;;34.51;26.31
11415;BME280;5763;42.714;23.244;2022-07-22T10:56:23;94725.22;;;34.48;24.19
11415;BME280;5763;42.714;23.244;2022-07-22T10:58:54;94722.53;;;34.71;24.92
11415;BME280;5763;42.714;23.244;2022-07-22T11:01:25;94717.94;;;34.87;24.96
11415;BME280;5763;42.714;23.244;2022-07-22T11:03:54;94714.81;;;35.04;25.37
11415;BME280;5763;42.714;23.244;2022-07-22T11:06:26;94711.69;;;35.21;24.22
11415;BME280;5763;42.714;23.244;2022-07-22T11:08:56;94710.63;;;35.37;24.34
11415;BME280;5763;42.714;23.244;2022-07-22T11:11:37;94713.03;;;35.52;23.68
11415;BME280;5763;42.714;23.244;2022-07-22T11:14:22;94715.09;;;35.73;23.66
11415;BME280;5763;42.714;23.244;2022-07-22T11:16:53;94717.09;;;35.82;22.94
11415;BME280;5763;42.714;23.244;2022-07-22T11:19:23;94718.22;;;35.88;23.46
11415;BME280;5763;42.714;23.244;2022-07-22T11:21:53;94715.13;;;35.96;23.86
11415;BME280;5763;42.714;23.244;2022-07-22T11:24:22;94711.16;;;36.01;23.73
11415;BME280;5763;42.714;23.244;2022-07-22T11:26:53;94715.25;;;35.98;22.93
11415;BME280;5763;42.714;23.244;2022-07-22T11:29:25;94710.03;;;36.06;21.29
11415;BME280;5763;42.714;23.244;2022-07-22T11:31:54;94714.78;;;36.01;22.26
11415;BME280;5763;42.714;23.244;2022-07-22T11:34:22;94704.84;;;36.14;22.56
11415;BME280;5763;42.714;23.244;2022-07-22T11:36:50;94712.56;;;36.23;22.24
11415;BME280;5763;42.714;23.244;2022-07-22T11:39:20;94710.09;;;36.29;22.01
11415;BME280;5763;42.714;23.244;2022-07-22T11:41:49;94706.13;;;36.34;22.13
11415;BME280;5763;42.714;23.244;2022-07-22T11:44:22;94714.03;;;36.35;22.26
11415;BME280;5763;42.714;23.244;2022-07-22T11:46:51;94707.09;;;36.50;21.85
11415;BME280;5763;42.714;23.244;2022-07-22T11:49:20;94699.25;;;36.73;21.85
11415;BME280;5763;42.714;23.244;2022-07-22T11:51:50;94706.34;;;36.72;22.16
11415;BME280;5763;42.714;23.244;2022-07-22T11:54:18;94700.63;;;36.61;21.56
11415;BME280;5763;42.714;23.244;2022-07-22T11:56:45;94697.16;;;36.51;21.94
11415;BME280;5763;42.714;23.244;2022-07-22T11:59:14;94700.16;;;36.64;21.57
11415;BME280;5763;42.714;23.244;2022-07-22T12:01:46;94701.88;;;36.69;21.46
11415;BME280;5763;42.714;23.244;2022-07-22T12:04:17;94707.56;;;36.69;22.39
11415;BME280;5763;42.714;23.244;2022-07-22T12:06:45;94688.44;;;36.83;21.46
11415;BME280;5763;42.714;23.244;2022-07-22T12:09:15;94691.03;;;36.91;20.42
11415;BME280;5763;42.714;23.244;2022-07-22T12:11:44;94693.34;;;37.06;21.46
11415;BME280;5763;42.714;23.244;2022-07-22T12:14:15;94697.44;;;37.03;22.25
11415;BME280;5763;42.714;23.244;2022-07-22T12:16:57;94689.38;;;36.99;22.10
11415;BME280;5763;42.714;23.244;2022-07-22T12:19:27;94685.47;;;36.81;22.25
11415;BME280;5763;42.714;23.244;2022-07-22T12:21:57;94684.47;;;36.88;22.20
11415;BME280;5763;42.714;23.244;2022-07-22T12:24:26;94692.59;;;37.05;21.93
11415;BME280;5763;42.714;23.244;2022-07-22T12:26:55;94689.59;;;37.15;21.62
11415;BME280;5763;42.714;23.244;2022-07-22T12:29:24;94688.16;;;37.27;21.00
11415;BME280;5763;42.714;23.244;2022-07-22T12:31:56;94691.50;;;37.35;21.61
11415;BME280;5763;42.714;23.244;2022-07-22T12:34:32;94682.75;;;37.45;21.48
11415;BME280;5763;42.714;23.244;2022-07-22T12:37:00;94690.97;;;37.39;21.12
11415;BME280;5763;42.714;23.244;2022-07-22T12:39:29;94678.41;;;37.44;21.24
11415;BME280;5763;42.714;23.244;2022-07-22T12:41:57;94683.44;;;37.32;21.26
11415;BME280;5763;42.714;23.244;2022-07-22T12:44:26;94683.69;;;37.36;21.59
11415;BME280;5763;42.714;23.244;2022-07-22T12:46:56;94677.41;;;37.26;22.19
11415;BME280;5763;42.714;23.244;2022-07-22T12:49:24;94667.88;;;37.35;21.37
11415;BME280;5763;42.714;23.244;2022-07-22T12:52:09;94667.13;;;37.09;21.39
11415;BME280;5763;42.714;23.244;2022-07-22T12:54:39;94674.94;;;37.09;21.29
11415;BME280;5763;42.714;23.244;2022-07-22T12:57:09;94667.84;;;37.21;20.88
11415;BME280;5763;42.714;23.244;2022-07-22T12:59:37;94666.19;;;37.30;20.77
11415;BME280;5763;42.714;23.244;2022-07-22T13:02:07;94667.31;;;37.50;20.93
11415;BME280;5763;42.714;23.244;2022-07-22T13:04:34;94668.81;;;37.51;21.89
11415;BME280;5763;42.714;23.244;2022-07-22T13:07:03;94669.28;;;37.59;21.64
11415;BME280;5763;42.714;23.244;2022-07-22T13:09:31;94671.78;;;37.78;21.08